sensor_id;sensor_type;location;lat;lon;timestamp;P1;durP1;ratioP1;P2;durP2;ratioP2
14092;SDS011;7123;49.468;10.992;2022-12-29T00:02:26;1.60;;;1.50;;
14092;SDS011;7123;49.468;10.992;2022-12-29T00:04:53;2.70;;;1.50;;
14092;SDS011;7123;49.468;10.992;2022-12-29T00:07:20;1.90;;;1.77;;
14092;SDS011;7123;49.468;10.992;2022-12-29T00:09:46;2.27;;;2.07;;
14092;SDS011;7123;49.468;10.992;2022-12-29T00:12:13;3.10;;;1.70;;
14092;SDS011;7123;49.468;10.992;2022-12-29T00:14:40;1.63;;;1.53;;
14092;SDS011;7123;49.468;10.992;2022-12-29T00:17:25;1.93;;;1.63;;
14092;SDS011;7123;49.468;10.992;2022-12-29T00:19:51;1.47;;;1.37;;
14092;SDS011;7123;49.468;10.992;2022-12-29T00:22:37;1.97;;;1.77;;
14092;SDS011;7123;49.468;10.992;2022-12-29T00:25:22;2.77;;;1.20;;
14092;SDS011;7123;49.468;10.992;2022-12-29T00:28:08;2.03;;;1.80;;
14092;SDS011;7123;49.468;10.992;2022-12-29T00:30:53;1.50;;;1.40;;
14092;SDS011;7123;49.468;10.992;2022-12-29T00:33:43;1.87;;;1.30;;
14092;SDS011;7123;49.468;10.992;2022-12-29T00:36:48;1.40;;;1.30;;
14092;SDS011;7123;49.468;10.992;2022-12-29T00:39:16;3.50;;;1.77;;
14092;SDS011;7123;49.468;10.992;2022-12-29T00:42:06;1.80;;;1.63;;
14092;SDS011;7123;49.468;10.992;2022-12-29T00:44:52;2.00;;;1.60;;
14092;SDS011;7123;49.468;10.992;2022-12-29T00:47:19;1.43;;;1.33;;
14092;SDS011;7123;49.468;10.992;2022-12-29T00:49:46;2.17;;;1.60;;
14092;SDS011;7123;49.468;10.992;2022-12-29T00:52:13;2.30;;;2.00;;
14092;SDS011;7123;49.468;10.992;2022-12-29T00:54:40;2.27;;;1.60;;
14092;SDS011;7123;49.468;10.992;2022-12-29T00:57:08;1.50;;;1.40;;
14092;SDS011;7123;49.468;10.992;2022-12-29T00:59:36;2.63;;;1.60;;
14092;SDS011;7123;49.468;10.992;2022-12-29T01:02:03;1.70;;;1.60;;
14092;SDS011;7123;49.468;10.992;2022-12-29T01:04:30;2.03;;;1.80;;
14092;SDS011;7123;49.468;10.992;2022-12-29T01:06:58;1.73;;;1.60;;
14092;SDS011;7123;49.468;10.992;2022-12-29T01:09:24;3.83;;;1.70;;
14092;SDS011;7123;49.468;10.992;2022-12-29T01:12:11;1.57;;;1.40;;
14092;SDS011;7123;49.468;10.992;2022-12-29T01:14:38;2.23;;;1.77;;
14092;SDS011;7123;49.468;10.992;2022-12-29T01:17:05;1.63;;;1.53;;
14092;SDS011;7123;49.468;10.992;2022-12-29T01:19:32;1.43;;;1.33;;
14092;SDS011;7123;49.468;10.992;2022-12-29T01:21:59;1.60;;;1.50;;
14092;SDS011;7123;49.468;10.992;2022-12-29T01:24:26;1.50;;;1.40;;
14092;SDS011;7123;49.468;10.992;2022-12-29T01:26:52;1.70;;;1.60;;
14092;SDS011;7123;49.468;10.992;2022-12-29T01:29:20;3.03;;;1.70;;
14092;SDS011;7123;49.468;10.992;2022-12-29T01:31:47;1.33;;;1.23;;
14092;SDS011;7123;49.468;10.992;2022-12-29T01:34:16;3.77;;;1.40;;
14092;SDS011;7123;49.468;10.992;2022-12-29T01:36:43;2.20;;;1.70;;
14092;SDS011;7123;49.468;10.992;2022-12-29T01:39:10;2.17;;;1.60;;
14092;SDS011;7123;49.468;10.992;2022-12-29T01:41:37;1.53;;;1.43;;
14092;SDS011;7123;49.468;10.992;2022-12-29T01:44:39;1.80;;;1.70;;
14092;SDS011;7123;49.468;10.992;2022-12-29T01:47:09;1.77;;;1.60;;
14092;SDS011;7123;49.468;10.992;2022-12-29T01:49:36;1.60;;;1.50;;
14092;SDS011;7123;49.468;10.992;2022-12-29T01:52:05;1.73;;;1.20;;
14092;SDS011;7123;49.468;10.992;2022-12-29T01:54:43;1.97;;;1.60;;
14092;SDS011;7123;49.468;10.992;2022-12-29T01:57:19;2.10;;;1.40;;
14092;SDS011;7123;49.468;10.992;2022-12-29T01:59:51;1.90;;;1.70;;
14092;SDS011;7123;49.468;10.992;2022-12-29T02:02:26;2.47;;;2.10;;
14092;SDS011;7123;49.468;10.992;2022-12-29T02:04:58;2.53;;;1.70;;
14092;SDS011;7123;49.468;10.992;2022-12-29T02:07:30;1.70;;;1.60;;
14092;SDS011;7123;49.468;10.992;2022-12-29T02:09:57;1.63;;;1.53;;
14092;SDS011;7123;49.468;10.992;2022-12-29T02:12:26;2.10;;;1.80;;
14092;SDS011;7123;49.468;10.992;2022-12-29T02:14:54;3.20;;;1.47;;
14092;SDS011;7123;49.468;10.992;2022-12-29T02:31:35;3.13;;;1.70;;
14092;SDS011;7123;49.468;10.992;2022-12-29T02:37:22;2.53;;;1.60;;
14092;SDS011;7123;49.468;10.992;2022-12-29T02:39:52;1.80;;;1.37;;
14092;SDS011;7123;49.468;10.992;2022-12-29T02:42:22;1.87;;;1.53;;
14092;SDS011;7123;49.468;10.992;2022-12-29T02:52:45;1.50;;;1.40;;
14092;SDS011;7123;49.468;10.992;2022-12-29T02:55:17;1.70;;;1.60;;
14092;SDS011;7123;49.468;10.992;2022-12-29T02:57:44;1.73;;;1.63;;
14092;SDS011;7123;49.468;10.992;2022-12-29T03:00:11;1.60;;;1.50;;
14092;SDS011;7123;49.468;10.992;2022-12-29T03:06:00;1.63;;;1.50;;
14092;SDS011;7123;49.468;10.992;2022-12-29T03:11:23;1.80;;;1.50;;
14092;SDS011;7123;49.468;10.992;2022-12-29T03:14:32;1.53;;;1.43;;
14092;SDS011;7123;49.468;10.992;2022-12-29T03:17:30;1.83;;;1.57;;
14092;SDS011;7123;49.468;10.992;2022-12-29T03:20:04;3.80;;;1.60;;
14092;SDS011;7123;49.468;10.992;2022-12-29T03:22:38;2.43;;;1.57;;
14092;SDS011;7123;49.468;10.992;2022-12-29T03:27:41;1.50;;;1.40;;
14092;SDS011;7123;49.468;10.992;2022-12-29T03:30:10;3.67;;;1.43;;
14092;SDS011;7123;49.468;10.992;2022-12-29T03:32:43;1.87;;;1.50;;
14092;SDS011;7123;49.468;10.992;2022-12-29T03:35:14;2.13;;;1.83;;
14092;SDS011;7123;49.468;10.992;2022-12-29T03:37:50;2.07;;;1.70;;
14092;SDS011;7123;49.468;10.992;2022-12-29T03:40:24;3.10;;;1.40;;
14092;SDS011;7123;49.468;10.992;2022-12-29T03:42:52;1.50;;;1.40;;
14092;SDS011;7123;49.468;10.992;2022-12-29T03:45:20;1.87;;;1.50;;
14092;SDS011;7123;49.468;10.992;2022-12-29T03:47:46;2.37;;;1.80;;
14092;SDS011;7123;49.468;10.992;2022-12-29T03:50:13;1.73;;;1.47;;
14092;SDS011;7123;49.468;10.992;2022-12-29T03:52:40;1.77;;;1.60;;
14092;SDS011;7123;49.468;10.992;2022-12-29T03:55:07;1.97;;;1.73;;
14092;SDS011;7123;49.468;10.992;2022-12-29T03:57:34;1.77;;;1.53;;
14092;SDS011;7123;49.468;10.992;2022-12-29T04:00:00;2.23;;;1.30;;
14092;SDS011;7123;49.468;10.992;2022-12-29T04:02:29;5.73;;;1.90;;
14092;SDS011;7123;49.468;10.992;2022-12-29T04:04:56;2.23;;;1.40;;
14092;SDS011;7123;49.468;10.992;2022-12-29T04:07:22;2.33;;;1.83;;
14092;SDS011;7123;49.468;10.992;2022-12-29T04:09:49;1.50;;;1.40;;
14092;SDS011;7123;49.468;10.992;2022-12-29T04:12:16;1.90;;;1.50;;
14092;SDS011;7123;49.468;10.992;2022-12-29T04:14:43;2.03;;;1.33;;
14092;SDS011;7123;49.468;10.992;2022-12-29T04:17:09;3.20;;;1.57;;
14092;SDS011;7123;49.468;10.992;2022-12-29T04:19:36;1.63;;;1.53;;
14092;SDS011;7123;49.468;10.992;2022-12-29T04:22:03;1.60;;;1.50;;
14092;SDS011;7123;49.468;10.992;2022-12-29T04:24:29;1.53;;;1.43;;
14092;SDS011;7123;49.468;10.992;2022-12-29T04:26:56;1.57;;;1.40;;
14092;SDS011;7123;49.468;10.992;2022-12-29T04:29:23;4.60;;;1.90;;
14092;SDS011;7123;49.468;10.992;2022-12-29T04:31:50;2.10;;;1.60;;
14092;SDS011;7123;49.468;10.992;2022-12-29T04:34:16;1.27;;;1.20;;
14092;SDS011;7123;49.468;10.992;2022-12-29T04:36:43;2.50;;;1.40;;
14092;SDS011;7123;49.468;10.992;2022-12-29T04:39:10;1.83;;;1.50;;
14092;SDS011;7123;49.468;10.992;2022-12-29T04:41:36;2.10;;;1.50;;
14092;SDS011;7123;49.468;10.992;2022-12-29T04:44:03;1.37;;;1.27;;
14092;SDS011;7123;49.468;10.992;2022-12-29T04:46:30;1.60;;;1.50;;
14092;SDS011;7123;49.468;10.992;2022-12-29T04:48:56;1.70;;;1.57;;
14092;SDS011;7123;49.468;10.992;2022-12-29T04:51:23;3.17;;;1.47;;
14092;SDS011;7123;49.468;10.992;2022-12-29T04:53:50;1.50;;;1.40;;
14092;SDS011;7123;49.468;10.992;2022-12-29T04:56:17;2.13;;;1.40;;
14092;SDS011;7123;49.468;10.992;2022-12-29T04:58:43;1.50;;;1.40;;
14092;SDS011;7123;49.468;10.992;2022-12-29T05:01:10;2.10;;;1.43;;
14092;SDS011;7123;49.468;10.992;2022-12-29T05:03:36;3.90;;;1.60;;
14092;SDS011;7123;49.468;10.992;2022-12-29T05:06:03;2.20;;;1.30;;
14092;SDS011;7123;49.468;10.992;2022-12-29T05:08:30;1.90;;;1.40;;
14092;SDS011;7123;49.468;10.992;2022-12-29T05:10:57;1.87;;;1.50;;
14092;SDS011;7123;49.468;10.992;2022-12-29T05:13:24;2.17;;;1.70;;
14092;SDS011;7123;49.468;10.992;2022-12-29T05:15:51;1.53;;;1.43;;
14092;SDS011;7123;49.468;10.992;2022-12-29T05:18:19;1.87;;;1.60;;
14092;SDS011;7123;49.468;10.992;2022-12-29T05:20:46;4.57;;;1.70;;
14092;SDS011;7123;49.468;10.992;2022-12-29T05:23:13;1.73;;;1.63;;
14092;SDS011;7123;49.468;10.992;2022-12-29T05:25:40;1.67;;;1.50;;
14092;SDS011;7123;49.468;10.992;2022-12-29T05:28:06;1.80;;;1.50;;
14092;SDS011;7123;49.468;10.992;2022-12-29T05:30:33;1.70;;;1.53;;
14092;SDS011;7123;49.468;10.992;2022-12-29T05:32:59;2.07;;;1.80;;
14092;SDS011;7123;49.468;10.992;2022-12-29T05:35:26;1.60;;;1.47;;
14092;SDS011;7123;49.468;10.992;2022-12-29T05:37:53;2.53;;;1.97;;
14092;SDS011;7123;49.468;10.992;2022-12-29T05:40:20;2.43;;;1.37;;
14092;SDS011;7123;49.468;10.992;2022-12-29T05:42:47;1.70;;;1.60;;
14092;SDS011;7123;49.468;10.992;2022-12-29T05:45:14;2.70;;;1.70;;
14092;SDS011;7123;49.468;10.992;2022-12-29T05:47:40;2.03;;;1.40;;
14092;SDS011;7123;49.468;10.992;2022-12-29T05:50:07;3.43;;;1.60;;
14092;SDS011;7123;49.468;10.992;2022-12-29T05:52:34;2.00;;;1.50;;
14092;SDS011;7123;49.468;10.992;2022-12-29T05:55:00;3.70;;;1.73;;
14092;SDS011;7123;49.468;10.992;2022-12-29T05:57:27;2.60;;;1.53;;
14092;SDS011;7123;49.468;10.992;2022-12-29T05:59:54;1.33;;;1.23;;
14092;SDS011;7123;49.468;10.992;2022-12-29T06:02:20;1.80;;;1.40;;
14092;SDS011;7123;49.468;10.992;2022-12-29T06:04:48;1.60;;;1.37;;
14092;SDS011;7123;49.468;10.992;2022-12-29T06:07:14;3.80;;;1.60;;
14092;SDS011;7123;49.468;10.992;2022-12-29T06:09:42;1.87;;;1.27;;
14092;SDS011;7123;49.468;10.992;2022-12-29T06:12:09;2.00;;;1.70;;
14092;SDS011;7123;49.468;10.992;2022-12-29T06:14:35;1.50;;;1.40;;
14092;SDS011;7123;49.468;10.992;2022-12-29T06:17:02;2.00;;;1.60;;
14092;SDS011;7123;49.468;10.992;2022-12-29T06:19:29;2.23;;;1.83;;
14092;SDS011;7123;49.468;10.992;2022-12-29T06:21:55;1.40;;;1.30;;
14092;SDS011;7123;49.468;10.992;2022-12-29T06:24:22;3.50;;;1.47;;
14092;SDS011;7123;49.468;10.992;2022-12-29T06:26:49;4.93;;;1.63;;
14092;SDS011;7123;49.468;10.992;2022-12-29T06:29:15;1.37;;;1.27;;
14092;SDS011;7123;49.468;10.992;2022-12-29T06:31:45;1.57;;;1.47;;
14092;SDS011;7123;49.468;10.992;2022-12-29T06:34:12;3.60;;;1.50;;
14092;SDS011;7123;49.468;10.992;2022-12-29T06:36:39;1.60;;;1.50;;
14092;SDS011;7123;49.468;10.992;2022-12-29T06:39:06;1.97;;;1.30;;
14092;SDS011;7123;49.468;10.992;2022-12-29T06:41:33;1.50;;;1.40;;
14092;SDS011;7123;49.468;10.992;2022-12-29T06:43:59;4.37;;;1.53;;
14092;SDS011;7123;49.468;10.992;2022-12-29T06:46:26;1.70;;;1.40;;
14092;SDS011;7123;49.468;10.992;2022-12-29T06:48:53;2.37;;;1.57;;
14092;SDS011;7123;49.468;10.992;2022-12-29T06:51:19;2.13;;;1.53;;
14092;SDS011;7123;49.468;10.992;2022-12-29T06:53:47;1.73;;;1.63;;
14092;SDS011;7123;49.468;10.992;2022-12-29T06:56:13;1.50;;;1.40;;
14092;SDS011;7123;49.468;10.992;2022-12-29T06:58:40;2.00;;;1.90;;
14092;SDS011;7123;49.468;10.992;2022-12-29T07:01:07;1.63;;;1.30;;
14092;SDS011;7123;49.468;10.992;2022-12-29T07:03:33;1.60;;;1.50;;
14092;SDS011;7123;49.468;10.992;2022-12-29T07:06:00;1.50;;;1.40;;
14092;SDS011;7123;49.468;10.992;2022-12-29T07:08:27;2.63;;;1.60;;
14092;SDS011;7123;49.468;10.992;2022-12-29T07:10:53;1.63;;;1.50;;
14092;SDS011;7123;49.468;10.992;2022-12-29T07:13:20;2.37;;;1.80;;
14092;SDS011;7123;49.468;10.992;2022-12-29T07:15:47;3.00;;;1.60;;
14092;SDS011;7123;49.468;10.992;2022-12-29T07:18:13;1.47;;;1.20;;
14092;SDS011;7123;49.468;10.992;2022-12-29T07:20:40;1.57;;;1.40;;
14092;SDS011;7123;49.468;10.992;2022-12-29T07:23:07;1.43;;;1.20;;
14092;SDS011;7123;49.468;10.992;2022-12-29T07:25:33;4.37;;;1.60;;
14092;SDS011;7123;49.468;10.992;2022-12-29T07:28:02;1.80;;;1.50;;
14092;SDS011;7123;49.468;10.992;2022-12-29T07:30:29;2.37;;;1.37;;
14092;SDS011;7123;49.468;10.992;2022-12-29T07:32:56;1.60;;;1.50;;
14092;SDS011;7123;49.468;10.992;2022-12-29T07:35:23;1.40;;;1.30;;
14092;SDS011;7123;49.468;10.992;2022-12-29T07:37:50;1.73;;;1.33;;
14092;SDS011;7123;49.468;10.992;2022-12-29T07:40:16;3.17;;;1.27;;
14092;SDS011;7123;49.468;10.992;2022-12-29T07:42:43;1.73;;;1.17;;
14092;SDS011;7123;49.468;10.992;2022-12-29T07:45:10;1.30;;;1.20;;
14092;SDS011;7123;49.468;10.992;2022-12-29T07:47:37;2.00;;;1.30;;
14092;SDS011;7123;49.468;10.992;2022-12-29T07:50:04;5.03;;;1.60;;
14092;SDS011;7123;49.468;10.992;2022-12-29T07:52:31;2.47;;;1.40;;
14092;SDS011;7123;49.468;10.992;2022-12-29T07:54:58;1.63;;;1.53;;
14092;SDS011;7123;49.468;10.992;2022-12-29T07:57:24;1.50;;;1.40;;
14092;SDS011;7123;49.468;10.992;2022-12-29T07:59:57;2.33;;;1.30;;
14092;SDS011;7123;49.468;10.992;2022-12-29T08:02:24;4.97;;;1.53;;
14092;SDS011;7123;49.468;10.992;2022-12-29T08:04:52;1.97;;;1.50;;
14092;SDS011;7123;49.468;10.992;2022-12-29T08:07:19;1.40;;;1.30;;
14092;SDS011;7123;49.468;10.992;2022-12-29T08:09:46;1.40;;;1.30;;
14092;SDS011;7123;49.468;10.992;2022-12-29T08:12:12;1.30;;;1.00;;
14092;SDS011;7123;49.468;10.992;2022-12-29T08:14:39;1.73;;;1.33;;
14092;SDS011;7123;49.468;10.992;2022-12-29T08:17:06;1.50;;;1.30;;
14092;SDS011;7123;49.468;10.992;2022-12-29T08:19:32;1.40;;;1.30;;
14092;SDS011;7123;49.468;10.992;2022-12-29T08:21:59;2.07;;;1.20;;
14092;SDS011;7123;49.468;10.992;2022-12-29T08:24:26;1.50;;;1.40;;
14092;SDS011;7123;49.468;10.992;2022-12-29T08:26:52;1.93;;;1.30;;
14092;SDS011;7123;49.468;10.992;2022-12-29T08:29:19;1.73;;;1.30;;
14092;SDS011;7123;49.468;10.992;2022-12-29T08:31:47;3.13;;;1.70;;
14092;SDS011;7123;49.468;10.992;2022-12-29T08:34:14;4.03;;;1.80;;
14092;SDS011;7123;49.468;10.992;2022-12-29T08:36:41;1.27;;;1.20;;
14092;SDS011;7123;49.468;10.992;2022-12-29T08:39:07;2.57;;;1.60;;
14092;SDS011;7123;49.468;10.992;2022-12-29T08:41:34;1.43;;;1.33;;
14092;SDS011;7123;49.468;10.992;2022-12-29T08:44:01;3.93;;;1.60;;
14092;SDS011;7123;49.468;10.992;2022-12-29T08:46:28;3.70;;;1.70;;
14092;SDS011;7123;49.468;10.992;2022-12-29T08:48:54;1.70;;;1.60;;
14092;SDS011;7123;49.468;10.992;2022-12-29T08:51:21;2.67;;;1.83;;
14092;SDS011;7123;49.468;10.992;2022-12-29T08:53:50;1.70;;;1.60;;
14092;SDS011;7123;49.468;10.992;2022-12-29T08:56:17;1.97;;;1.70;;
14092;SDS011;7123;49.468;10.992;2022-12-29T08:58:44;3.47;;;1.60;;
14092;SDS011;7123;49.468;10.992;2022-12-29T09:01:10;2.00;;;1.70;;
14092;SDS011;7123;49.468;10.992;2022-12-29T09:03:37;3.97;;;1.93;;
14092;SDS011;7123;49.468;10.992;2022-12-29T09:06:24;3.07;;;1.57;;
14092;SDS011;7123;49.468;10.992;2022-12-29T09:08:52;1.50;;;1.40;;
14092;SDS011;7123;49.468;10.992;2022-12-29T09:11:21;4.73;;;1.60;;
14092;SDS011;7123;49.468;10.992;2022-12-29T09:13:50;1.50;;;1.30;;
14092;SDS011;7123;49.468;10.992;2022-12-29T09:16:17;1.30;;;1.20;;
14092;SDS011;7123;49.468;10.992;2022-12-29T09:18:45;2.30;;;1.50;;
14092;SDS011;7123;49.468;10.992;2022-12-29T09:21:12;1.50;;;1.40;;
14092;SDS011;7123;49.468;10.992;2022-12-29T09:23:39;1.50;;;1.40;;
14092;SDS011;7123;49.468;10.992;2022-12-29T09:26:06;1.60;;;1.50;;
14092;SDS011;7123;49.468;10.992;2022-12-29T09:28:34;1.50;;;1.37;;
14092;SDS011;7123;49.468;10.992;2022-12-29T09:31:01;1.93;;;1.50;;
14092;SDS011;7123;49.468;10.992;2022-12-29T09:33:28;1.93;;;1.50;;
14092;SDS011;7123;49.468;10.992;2022-12-29T09:35:56;2.33;;;1.70;;
14092;SDS011;7123;49.468;10.992;2022-12-29T09:38:24;2.10;;;1.90;;
14092;SDS011;7123;49.468;10.992;2022-12-29T09:41:06;2.43;;;1.80;;
14092;SDS011;7123;49.468;10.992;2022-12-29T09:47:04;2.67;;;2.23;;
14092;SDS011;7123;49.468;10.992;2022-12-29T09:52:30;2.70;;;2.23;;
14092;SDS011;7123;49.468;10.992;2022-12-29T09:55:05;2.87;;;2.67;;
14092;SDS011;7123;49.468;10.992;2022-12-29T09:57:45;2.50;;;2.20;;
14092;SDS011;7123;49.468;10.992;2022-12-29T10:00:23;2.00;;;1.80;;
14092;SDS011;7123;49.468;10.992;2022-12-29T10:03:05;3.30;;;2.10;;
14092;SDS011;7123;49.468;10.992;2022-12-29T10:16:09;1.97;;;1.70;;
14092;SDS011;7123;49.468;10.992;2022-12-29T10:24:10;1.57;;;1.30;;
14092;SDS011;7123;49.468;10.992;2022-12-29T10:26:42;1.33;;;1.23;;
14092;SDS011;7123;49.468;10.992;2022-12-29T10:29:13;2.30;;;1.47;;
14092;SDS011;7123;49.468;10.992;2022-12-29T10:31:54;1.57;;;1.43;;
14092;SDS011;7123;49.468;10.992;2022-12-29T10:34:27;2.63;;;1.60;;
14092;SDS011;7123;49.468;10.992;2022-12-29T10:36:58;2.53;;;1.67;;
14092;SDS011;7123;49.468;10.992;2022-12-29T10:39:33;2.33;;;1.80;;
14092;SDS011;7123;49.468;10.992;2022-12-29T10:42:11;1.47;;;1.20;;
14092;SDS011;7123;49.468;10.992;2022-12-29T10:45:00;4.70;;;1.60;;
14092;SDS011;7123;49.468;10.992;2022-12-29T10:47:28;2.97;;;1.40;;
14092;SDS011;7123;49.468;10.992;2022-12-29T10:50:02;1.60;;;1.50;;
14092;SDS011;7123;49.468;10.992;2022-12-29T10:52:29;1.60;;;1.37;;
14092;SDS011;7123;49.468;10.992;2022-12-29T10:54:59;2.20;;;1.47;;
14092;SDS011;7123;49.468;10.992;2022-12-29T10:57:49;1.57;;;1.47;;
14092;SDS011;7123;49.468;10.992;2022-12-29T11:00:17;1.40;;;1.20;;
14092;SDS011;7123;49.468;10.992;2022-12-29T11:05:55;4.23;;;1.60;;
14092;SDS011;7123;49.468;10.992;2022-12-29T11:08:27;1.70;;;1.60;;
14092;SDS011;7123;49.468;10.992;2022-12-29T11:11:03;2.40;;;1.60;;
14092;SDS011;7123;49.468;10.992;2022-12-29T11:13:32;2.10;;;1.90;;
14092;SDS011;7123;49.468;10.992;2022-12-29T11:16:04;1.80;;;1.70;;
14092;SDS011;7123;49.468;10.992;2022-12-29T11:18:33;3.57;;;1.90;;
14092;SDS011;7123;49.468;10.992;2022-12-29T11:21:07;3.23;;;2.10;;
14092;SDS011;7123;49.468;10.992;2022-12-29T11:29:52;3.40;;;2.00;;
14092;SDS011;7123;49.468;10.992;2022-12-29T11:32:21;4.30;;;1.90;;
14092;SDS011;7123;49.468;10.992;2022-12-29T11:34:54;2.10;;;1.90;;
14092;SDS011;7123;49.468;10.992;2022-12-29T11:37:28;3.60;;;2.17;;
14092;SDS011;7123;49.468;10.992;2022-12-29T11:40:00;4.87;;;1.90;;
14092;SDS011;7123;49.468;10.992;2022-12-29T11:45:22;2.50;;;2.10;;
14092;SDS011;7123;49.468;10.992;2022-12-29T11:47:59;3.70;;;2.10;;
14092;SDS011;7123;49.468;10.992;2022-12-29T11:50:32;4.17;;;2.20;;
14092;SDS011;7123;49.468;10.992;2022-12-29T11:53:14;5.70;;;2.30;;
14092;SDS011;7123;49.468;10.992;2022-12-29T11:55:59;1.90;;;1.77;;
14092;SDS011;7123;49.468;10.992;2022-12-29T11:58:34;3.80;;;1.80;;
14092;SDS011;7123;49.468;10.992;2022-12-29T12:01:07;1.90;;;1.77;;
14092;SDS011;7123;49.468;10.992;2022-12-29T12:03:38;3.93;;;1.77;;
14092;SDS011;7123;49.468;10.992;2022-12-29T12:06:12;1.77;;;1.63;;
14092;SDS011;7123;49.468;10.992;2022-12-29T12:08:52;2.23;;;1.77;;
14092;SDS011;7123;49.468;10.992;2022-12-29T12:11:22;3.23;;;1.50;;
14092;SDS011;7123;49.468;10.992;2022-12-29T12:14:00;2.33;;;1.60;;
14092;SDS011;7123;49.468;10.992;2022-12-29T12:16:48;3.63;;;1.70;;
14092;SDS011;7123;49.468;10.992;2022-12-29T12:19:27;3.93;;;1.63;;
14092;SDS011;7123;49.468;10.992;2022-12-29T12:22:03;3.17;;;1.50;;
14092;SDS011;7123;49.468;10.992;2022-12-29T12:24:43;2.87;;;1.40;;
14092;SDS011;7123;49.468;10.992;2022-12-29T12:27:20;1.77;;;1.63;;
14092;SDS011;7123;49.468;10.992;2022-12-29T12:35:21;4.40;;;1.50;;
14092;SDS011;7123;49.468;10.992;2022-12-29T12:38:05;3.40;;;1.57;;
14092;SDS011;7123;49.468;10.992;2022-12-29T12:41:00;6.50;;;1.97;;
14092;SDS011;7123;49.468;10.992;2022-12-29T12:43:41;2.30;;;1.57;;
14092;SDS011;7123;49.468;10.992;2022-12-29T12:58:55;2.13;;;1.40;;
14092;SDS011;7123;49.468;10.992;2022-12-29T13:01:42;2.13;;;1.50;;
14092;SDS011;7123;49.468;10.992;2022-12-29T13:07:26;2.13;;;1.60;;
14092;SDS011;7123;49.468;10.992;2022-12-29T13:19:08;1.60;;;1.47;;
14092;SDS011;7123;49.468;10.992;2022-12-29T13:24:22;2.33;;;1.50;;
14092;SDS011;7123;49.468;10.992;2022-12-29T13:27:25;3.67;;;1.70;;
14092;SDS011;7123;49.468;10.992;2022-12-29T13:30:09;3.43;;;1.80;;
14092;SDS011;7123;49.468;10.992;2022-12-29T13:35:43;4.70;;;1.90;;
14092;SDS011;7123;49.468;10.992;2022-12-29T13:41:08;3.67;;;1.77;;
14092;SDS011;7123;49.468;10.992;2022-12-29T13:43:40;3.40;;;1.80;;
14092;SDS011;7123;49.468;10.992;2022-12-29T13:46:14;2.73;;;1.70;;
14092;SDS011;7123;49.468;10.992;2022-12-29T13:48:47;4.73;;;2.37;;
14092;SDS011;7123;49.468;10.992;2022-12-29T13:51:19;2.67;;;1.77;;
14092;SDS011;7123;49.468;10.992;2022-12-29T13:56:48;3.07;;;2.30;;
14092;SDS011;7123;49.468;10.992;2022-12-29T14:07:49;2.73;;;2.23;;
14092;SDS011;7123;49.468;10.992;2022-12-29T14:10:29;3.43;;;2.13;;
14092;SDS011;7123;49.468;10.992;2022-12-29T14:13:17;4.37;;;2.33;;
14092;SDS011;7123;49.468;10.992;2022-12-29T14:15:56;2.40;;;2.10;;
14092;SDS011;7123;49.468;10.992;2022-12-29T14:18:28;3.10;;;2.33;;
14092;SDS011;7123;49.468;10.992;2022-12-29T14:20:58;2.97;;;2.03;;
14092;SDS011;7123;49.468;10.992;2022-12-29T14:23:45;3.03;;;1.90;;
14092;SDS011;7123;49.468;10.992;2022-12-29T14:26:18;6.40;;;1.80;;
14092;SDS011;7123;49.468;10.992;2022-12-29T14:31:50;2.43;;;2.20;;
14092;SDS011;7123;49.468;10.992;2022-12-29T14:37:00;3.10;;;2.10;;
14092;SDS011;7123;49.468;10.992;2022-12-29T14:44:46;2.30;;;2.10;;
14092;SDS011;7123;49.468;10.992;2022-12-29T14:47:31;2.97;;;2.20;;
14092;SDS011;7123;49.468;10.992;2022-12-29T14:50:06;2.70;;;2.20;;
14092;SDS011;7123;49.468;10.992;2022-12-29T14:52:42;2.40;;;1.77;;
14092;SDS011;7123;49.468;10.992;2022-12-29T14:57:42;2.87;;;1.77;;
14092;SDS011;7123;49.468;10.992;2022-12-29T15:00:21;2.00;;;1.80;;
14092;SDS011;7123;49.468;10.992;2022-12-29T15:03:13;3.60;;;1.90;;
14092;SDS011;7123;49.468;10.992;2022-12-29T15:05:44;2.60;;;1.80;;
14092;SDS011;7123;49.468;10.992;2022-12-29T15:08:17;2.93;;;1.60;;
14092;SDS011;7123;49.468;10.992;2022-12-29T15:10:53;2.67;;;2.10;;
14092;SDS011;7123;49.468;10.992;2022-12-29T15:13:33;2.70;;;1.80;;
14092;SDS011;7123;49.468;10.992;2022-12-29T15:16:01;2.87;;;2.30;;
14092;SDS011;7123;49.468;10.992;2022-12-29T15:18:30;2.40;;;2.00;;
14092;SDS011;7123;49.468;10.992;2022-12-29T15:23:27;4.10;;;2.17;;
14092;SDS011;7123;49.468;10.992;2022-12-29T15:26:00;2.80;;;1.77;;
14092;SDS011;7123;49.468;10.992;2022-12-29T15:28:42;2.00;;;1.80;;
14092;SDS011;7123;49.468;10.992;2022-12-29T15:31:11;3.37;;;1.70;;
14092;SDS011;7123;49.468;10.992;2022-12-29T15:33:41;2.60;;;1.57;;
14092;SDS011;7123;49.468;10.992;2022-12-29T15:36:14;2.53;;;2.33;;
14092;SDS011;7123;49.468;10.992;2022-12-29T15:38:45;2.20;;;1.90;;
14092;SDS011;7123;49.468;10.992;2022-12-29T15:47:05;2.47;;;2.03;;
14092;SDS011;7123;49.468;10.992;2022-12-29T15:49:38;6.93;;;2.10;;
14092;SDS011;7123;49.468;10.992;2022-12-29T15:52:08;2.53;;;2.27;;
14092;SDS011;7123;49.468;10.992;2022-12-29T15:54:36;2.67;;;2.30;;
14092;SDS011;7123;49.468;10.992;2022-12-29T15:57:04;2.50;;;2.20;;
14092;SDS011;7123;49.468;10.992;2022-12-29T15:59:56;3.80;;;2.73;;
14092;SDS011;7123;49.468;10.992;2022-12-29T16:02:23;3.00;;;2.30;;
14092;SDS011;7123;49.468;10.992;2022-12-29T16:04:51;2.50;;;2.30;;
14092;SDS011;7123;49.468;10.992;2022-12-29T16:07:39;7.10;;;2.30;;
14092;SDS011;7123;49.468;10.992;2022-12-29T16:10:25;4.23;;;2.53;;
14092;SDS011;7123;49.468;10.992;2022-12-29T16:13:12;6.00;;;2.80;;
14092;SDS011;7123;49.468;10.992;2022-12-29T16:15:50;6.17;;;2.60;;
14092;SDS011;7123;49.468;10.992;2022-12-29T16:18:40;6.67;;;2.60;;
14092;SDS011;7123;49.468;10.992;2022-12-29T16:21:15;2.63;;;2.10;;
14092;SDS011;7123;49.468;10.992;2022-12-29T16:23:46;3.20;;;2.90;;
14092;SDS011;7123;49.468;10.992;2022-12-29T16:26:20;2.93;;;2.50;;
14092;SDS011;7123;49.468;10.992;2022-12-29T16:28:50;3.87;;;2.50;;
14092;SDS011;7123;49.468;10.992;2022-12-29T16:37:35;3.07;;;2.37;;
14092;SDS011;7123;49.468;10.992;2022-12-29T16:42:49;5.80;;;2.10;;
14092;SDS011;7123;49.468;10.992;2022-12-29T16:50:41;2.87;;;2.37;;
14092;SDS011;7123;49.468;10.992;2022-12-29T16:53:20;2.53;;;2.33;;
14092;SDS011;7123;49.468;10.992;2022-12-29T16:55:51;2.40;;;2.20;;
14092;SDS011;7123;49.468;10.992;2022-12-29T16:58:21;2.53;;;2.33;;
14092;SDS011;7123;49.468;10.992;2022-12-29T17:00:51;4.10;;;2.53;;
14092;SDS011;7123;49.468;10.992;2022-12-29T17:03:24;3.90;;;2.57;;
14092;SDS011;7123;49.468;10.992;2022-12-29T17:05:59;3.33;;;2.53;;
14092;SDS011;7123;49.468;10.992;2022-12-29T17:08:25;4.63;;;2.77;;
14092;SDS011;7123;49.468;10.992;2022-12-29T17:10:54;3.13;;;2.53;;
14092;SDS011;7123;49.468;10.992;2022-12-29T17:13:40;4.37;;;2.70;;
14092;SDS011;7123;49.468;10.992;2022-12-29T17:16:09;3.03;;;2.80;;
14092;SDS011;7123;49.468;10.992;2022-12-29T17:18:36;4.77;;;2.80;;
14092;SDS011;7123;49.468;10.992;2022-12-29T17:21:04;3.97;;;2.90;;
14092;SDS011;7123;49.468;10.992;2022-12-29T17:23:31;4.50;;;2.53;;
14092;SDS011;7123;49.468;10.992;2022-12-29T17:25:59;3.30;;;2.43;;
14092;SDS011;7123;49.468;10.992;2022-12-29T17:28:28;3.23;;;2.70;;
14092;SDS011;7123;49.468;10.992;2022-12-29T17:30:58;3.83;;;3.40;;
14092;SDS011;7123;49.468;10.992;2022-12-29T17:33:28;3.50;;;2.80;;
14092;SDS011;7123;49.468;10.992;2022-12-29T17:35:58;7.07;;;3.33;;
14092;SDS011;7123;49.468;10.992;2022-12-29T17:38:26;4.57;;;3.37;;
14092;SDS011;7123;49.468;10.992;2022-12-29T17:40:55;3.77;;;2.40;;
14092;SDS011;7123;49.468;10.992;2022-12-29T17:43:22;6.87;;;2.70;;
14092;SDS011;7123;49.468;10.992;2022-12-29T17:45:51;2.90;;;2.70;;
14092;SDS011;7123;49.468;10.992;2022-12-29T17:48:23;3.63;;;2.50;;